Time;durP1;ratioP1;P1;durP2;ratioP2;P2;SDS_P1;SDS_P2;PMS_P1;PMS_P2;Temp;Humidity;BMP_temperature;BMP_pressure;BME280_temperature;BME280_humidity;BME280_pressure;Samples;Min_cycle;Max_cycle;Signal;HPM_P1;HPM_P2
2022/05/11 00:01:25;;;;;;;5.97;2.80;;;;;;;16.21;56.55;101227.16;5035837;28;20466;-84
2022/05/11 00:03:52;;;;;;;11.90;3.08;;;;;;;16.21;57.26;101226.31;5035607;28;20059;-84
2022/05/11 00:06:18;;;;;;;8.90;2.78;;;;;;;16.20;57.54;101227.25;5053607;28;20160;-84
2022/05/11 00:08:43;;;;;;;6.72;3.03;;;;;;;16.18;59.00;101234.44;5022778;28;20155;-84
2022/05/11 00:11:09;;;;;;;5.00;3.10;;;;;;;16.18;58.63;101226.44;5022811;28;20025;-84
2022/05/11 00:13:34;;;;;;;5.88;3.15;;;;;;;16.16;58.83;101220.28;5055486;28;20025;-84
2022/05/11 00:16:00;;;;;;;8.45;2.90;;;;;;;16.13;58.88;101215.91;5038559;28;20041;-84
2022/05/11 00:18:26;;;;;;;7.38;3.17;;;;;;;16.10;58.20;101216.03;5022030;28;20028;-84
2022/05/11 00:20:51;;;;;;;6.05;3.10;;;;;;;16.07;59.56;101205.44;5005829;28;20033;-84
2022/05/11 00:23:18;;;;;;;11.10;3.40;;;;;;;16.06;58.83;101217.94;5022163;28;20036;-84
2022/05/11 00:25:47;;;;;;;6.32;3.00;;;;;;;16.07;59.30;101209.03;5038865;28;20036;-84
2022/05/11 00:28:12;;;;;;;7.07;3.35;;;;;;;16.08;58.94;101207.22;5055377;28;20123;-84
2022/05/11 00:30:40;;;;;;;8.43;3.75;;;;;;;16.04;59.28;101208.25;5038615;28;20043;-84
2022/05/11 00:33:06;;;;;;;9.00;3.30;;;;;;;16.04;58.84;101202.91;5054312;28;20021;-84
2022/05/11 00:35:33;;;;;;;9.80;3.35;;;;;;;16.02;59.04;101199.41;5054869;28;20036;-84
2022/05/11 00:38:00;;;;;;;8.45;3.55;;;;;;;16.02;58.66;101196.75;5038273;28;20028;-84
2022/05/11 00:40:27;;;;;;;8.15;3.13;;;;;;;16.03;58.43;101199.38;5072632;28;20094;-84
2022/05/11 00:42:53;;;;;;;12.60;3.40;;;;;;;16.05;58.55;101202.88;5053828;28;20105;-84
2022/05/11 00:45:19;;;;;;;7.63;3.25;;;;;;;16.03;58.25;101188.69;5071234;28;20052;-84
2022/05/11 00:48:01;;;;;;;5.55;3.10;;;;;;;16.05;58.00;101192.19;5038166;28;20057;-84
2022/05/11 00:50:32;;;;;;;10.05;3.80;;;;;;;16.00;58.57;101180.81;5071250;28;20449;-84
2022/05/11 00:53:11;;;;;;;11.45;3.70;;;;;;;15.98;58.59;101179.97;5054537;28;20033;-84
2022/05/11 00:55:56;;;;;;;6.20;3.20;;;;;;;15.98;58.52;101181.78;5054038;28;20051;-84
2022/05/11 00:58:26;;;;;;;9.13;3.60;;;;;;;15.93;59.21;101179.28;5037953;28;20068;-84
2022/05/11 01:00:51;;;;;;;7.55;3.42;;;;;;;15.93;58.32;101181.97;5038119;28;20438;-84
2022/05/11 01:03:21;;;;;;;9.23;3.25;;;;;;;15.94;57.85;101181.03;5034309;28;20045;-84
2022/05/11 01:05:47;;;;;;;7.68;3.30;;;;;;;15.94;57.98;101182.84;5034587;28;20037;-84
2022/05/11 01:08:14;;;;;;;9.65;3.25;;;;;;;15.94;58.44;101182.84;5052454;28;20047;-85
2022/05/11 01:10:40;;;;;;;6.72;3.17;;;;;;;15.93;58.14;101168.63;5052251;28;20060;-84
2022/05/11 01:13:09;;;;;;;6.78;3.20;;;;;;;15.91;57.71;101170.47;5034288;28;20029;-84
2022/05/11 01:15:35;;;;;;;7.75;2.72;;;;;;;15.90;57.67;101158.91;5052379;28;20037;-84
2022/05/11 01:18:03;;;;;;;5.82;3.10;;;;;;;15.90;57.97;101158.91;5018502;28;20049;-84
2022/05/11 01:20:30;;;;;;;8.63;3.25;;;;;;;15.89;57.76;101157.16;5018148;28;20490;-84
2022/05/11 01:23:26;;;;;;;5.93;2.65;;;;;;;15.91;57.92;101154.44;5052190;28;20105;-84
2022/05/11 01:25:54;;;;;;;5.47;2.92;;;;;;;15.86;58.02;101145.75;5034529;28;20048;-83
2022/05/11 01:28:20;;;;;;;6.65;2.75;;;;;;;15.86;57.77;101167.97;5017718;28;20077;-84
2022/05/11 01:31:01;;;;;;;4.82;2.58;;;;;;;15.87;57.67;101169.72;5034179;28;20095;-84
2022/05/11 01:33:26;;;;;;;8.50;2.80;;;;;;;15.82;58.45;101169.00;5017811;28;20021;-84
2022/05/11 01:36:11;;;;;;;4.70;2.70;;;;;;;15.84;57.96;101163.63;5001438;28;20353;-84
2022/05/11 01:38:42;;;;;;;6.15;3.20;;;;;;;15.83;57.71;101162.75;5017830;28;20090;-84
2022/05/11 01:41:11;;;;;;;7.72;2.42;;;;;;;15.82;58.17;101158.31;5017726;28;20029;-84
2022/05/11 01:43:39;;;;;;;10.15;3.22;;;;;;;15.82;58.41;101144.97;5041822;28;20051;-84
2022/05/11 01:46:06;;;;;;;7.80;2.70;;;;;;;15.78;58.38;101148.72;5034136;28;20049;-84
2022/05/11 01:48:31;;;;;;;8.13;2.85;;;;;;;15.79;58.82;101145.09;5052177;28;20083;-84
2022/05/11 01:50:57;;;;;;;15.80;3.40;;;;;;;15.78;58.84;101147.84;5017601;28;20444;-84
2022/05/11 01:53:25;;;;;;;6.00;2.75;;;;;;;15.76;58.55;101139.88;5017730;28;20045;-84
2022/05/11 01:55:51;;;;;;;5.60;2.80;;;;;;;15.75;59.16;101143.50;5050506;28;20036;-84
2022/05/11 01:58:18;;;;;;;7.43;3.10;;;;;;;15.74;58.76;101141.75;5017408;28;20033;-84
2022/05/11 02:00:45;;;;;;;7.35;3.30;;;;;;;15.73;58.73;101140.00;5033853;28;20078;-84
2022/05/11 02:03:12;;;;;;;7.20;3.45;;;;;;;15.72;59.17;101135.59;5045582;28;20095;-84
2022/05/11 02:08:22;;;;;;;8.35;2.75;;;;;;;15.71;58.85;101138.34;5022710;28;20037;-84
2022/05/11 02:10:48;;;;;;;9.45;3.20;;;;;;;15.68;59.35;101129.47;5037464;28;20033;-84
2022/05/11 02:13:14;;;;;;;5.05;2.33;;;;;;;15.66;59.75;101141.13;5037886;28;20032;-84
2022/05/11 02:15:40;;;;;;;5.50;2.50;;;;;;;15.63;59.37;101133.25;5037658;28;20033;-84
2022/05/11 02:18:07;;;;;;;3.83;2.28;;;;;;;15.64;59.29;101129.66;5037726;28;20087;-83
2022/05/11 02:20:33;;;;;;;7.57;2.60;;;;;;;15.65;59.31;101134.03;5020929;28;20053;-84
2022/05/11 02:22:59;;;;;;;6.25;2.20;;;;;;;15.64;59.00;101135.84;5004852;28;20381;-84
2022/05/11 02:25:25;;;;;;;4.70;2.35;;;;;;;15.62;59.62;101131.50;5004691;28;20056;-84
2022/05/11 02:27:52;;;;;;;9.18;2.83;;;;;;;15.63;59.63;101125.25;5054299;28;20041;-84
2022/05/11 02:30:25;;;;;;;6.28;2.50;;;;;;;15.63;59.13;101128.78;5054254;28;20025;-84
2022/05/11 02:32:51;;;;;;;7.32;2.60;;;;;;;15.65;59.62;101128.69;5029252;28;20034;-84
2022/05/11 02:35:17;;;;;;;4.10;2.35;;;;;;;15.62;59.25;101124.34;5017683;28;20485;-84
2022/05/11 02:37:48;;;;;;;8.50;2.70;;;;;;;15.64;59.62;101126.97;5034019;28;20021;-84
2022/05/11 02:40:20;;;;;;;4.60;2.42;;;;;;;15.64;59.63;101133.19;5033783;28;20520;-84
2022/05/11 02:42:46;;;;;;;10.15;2.63;;;;;;;15.63;59.95;101131.44;5017183;28;20087;-84
2022/05/11 02:45:13;;;;;;;8.52;2.65;;;;;;;15.63;59.43;101127.91;5032436;28;20021;-84
2022/05/11 02:47:40;;;;;;;5.18;2.42;;;;;;;15.65;59.80;101128.69;5016569;28;20045;-84
2022/05/11 02:50:06;;;;;;;6.53;2.88;;;;;;;15.64;59.45;101126.97;5031529;28;20040;-84
2022/05/11 02:52:33;;;;;;;8.52;2.60;;;;;;;15.61;60.10;101130.63;5026074;28;20476;-84
2022/05/11 02:54:58;;;;;;;6.43;2.72;;;;;;;15.58;59.75;101112.06;5020626;28;21651;-84
2022/05/11 02:57:25;;;;;;;5.32;2.50;;;;;;;15.62;59.58;101128.81;5037104;28;20167;-84
2022/05/11 02:59:51;;;;;;;4.32;2.45;;;;;;;15.61;59.51;101119.97;5037175;28;20121;-83
2022/05/11 03:02:21;;;;;;;7.55;2.90;;;;;;;15.61;59.88;101125.28;5020454;28;20037;-84
2022/05/11 03:04:48;;;;;;;6.53;2.53;;;;;;;15.61;60.02;101119.97;5042816;28;20555;-83
2022/05/11 03:07:13;;;;;;;5.45;2.35;;;;;;;15.58;59.92;101119.19;5021621;28;20029;-84
2022/05/11 03:09:39;;;;;;;5.75;2.50;;;;;;;15.58;60.10;101109.41;5012024;28;20524;-83
2022/05/11 03:12:05;;;;;;;5.13;2.40;;;;;;;15.56;60.04;101110.41;5031155;28;20459;-84
2022/05/11 03:14:31;;;;;;;6.03;2.65;;;;;;;15.54;59.80;101101.56;5031581;28;20028;-83
2022/05/11 03:16:57;;;;;;;8.27;2.78;;;;;;;15.55;59.84;101100.63;5029517;28;20044;-84
2022/05/11 03:19:23;;;;;;;10.55;2.55;;;;;;;15.50;60.05;101100.78;5027425;28;20041;-84
2022/05/11 03:21:50;;;;;;;5.18;2.60;;;;;;;15.43;60.20;101093.94;5024525;28;20021;-84
2022/05/11 03:24:19;;;;;;;7.32;2.38;;;;;;;15.48;60.29;101100.88;5048921;28;20492;-84
2022/05/11 03:26:44;;;;;;;9.38;2.17;;;;;;;15.45;60.54;101097.44;5011170;28;20032;-84
2022/05/11 03:29:11;;;;;;;6.05;2.30;;;;;;;15.46;60.68;101093.84;5013007;28;20119;-84
2022/05/11 03:31:38;;;;;;;7.13;2.35;;;;;;;15.46;60.25;101093.84;5058528;28;20033;-84
2022/05/11 03:36:49;;;;;;;5.70;2.38;;;;;;;15.46;60.36;101091.19;5049173;28;20036;-84
2022/05/11 03:39:15;;;;;;;6.15;2.47;;;;;;;15.42;60.97;101084.22;5035607;28;20468;-84
2022/05/11 03:41:42;;;;;;;5.13;2.45;;;;;;;15.39;60.68;101087.00;5022410;28;20040;-84
2022/05/11 03:44:09;;;;;;;3.55;2.22;;;;;;;15.38;60.42;101086.16;5041942;28;20044;-84
2022/05/11 03:46:34;;;;;;;6.55;2.40;;;;;;;15.37;60.50;101079.03;5026203;28;20053;-84
2022/05/11 03:49:00;;;;;;;4.22;2.50;;;;;;;15.36;60.88;101080.00;5033020;28;20086;-84
2022/05/11 03:51:26;;;;;;;6.38;2.65;;;;;;;15.37;61.09;101076.38;4992180;28;20048;-84
2022/05/11 03:53:52;;;;;;;5.38;2.20;;;;;;;15.36;60.61;101074.66;5041975;28;20029;-83
2022/05/11 03:56:18;;;;;;;8.77;2.50;;;;;;;15.36;60.60;101071.97;5023826;28;20116;-84
2022/05/11 03:58:45;;;;;;;9.38;2.63;;;;;;;15.36;60.97;101076.47;5024937;28;20461;-84
2022/05/11 04:01:11;;;;;;;4.80;2.42;;;;;;;15.36;60.43;101076.47;5011415;28;20067;-83
2022/05/11 04:03:37;;;;;;;6.35;2.40;;;;;;;15.34;60.23;101072.97;5044459;28;20464;-83
2022/05/11 04:06:03;;;;;;;3.90;2.20;;;;;;;15.33;60.60;101072.09;5046805;28;20064;-84
2022/05/11 04:08:29;;;;;;;5.50;2.00;;;;;;;15.34;60.77;101072.97;5041863;28;20052;-83
2022/05/11 04:10:54;;;;;;;6.10;2.65;;;;;;;15.32;60.70;101069.50;5030293;28;20120;-84
2022/05/11 04:13:20;;;;;;;5.10;2.10;;;;;;;15.32;60.32;101062.34;5028162;28;20035;-83
2022/05/11 04:15:50;;;;;;;8.85;2.15;;;;;;;15.33;60.54;101064.09;5054378;28;20395;-84
2022/05/11 04:18:17;;;;;;;5.47;2.63;;;;;;;15.33;60.56;101069.44;5019087;28;20033;-84
2022/05/11 04:20:42;;;;;;;5.18;2.40;;;;;;;15.32;60.92;101066.81;5046798;28;20170;-84
2022/05/11 04:23:08;;;;;;;4.25;2.22;;;;;;;15.32;60.98;101064.16;5061348;28;20071;-84
2022/05/11 04:25:33;;;;;;;5.07;2.10;;;;;;;15.30;60.77;101061.53;5018402;28;20061;-84
2022/05/11 04:27:59;;;;;;;5.10;2.15;;;;;;;15.31;61.12;101057.09;5030040;28;20033;-83
2022/05/11 04:30:26;;;;;;;4.25;2.30;;;;;;;15.32;60.78;101065.00;5023547;28;20125;-84
2022/05/11 04:32:53;;;;;;;5.60;2.30;;;;;;;15.31;61.26;101062.44;5013659;28;20033;-83
2022/05/11 04:35:19;;;;;;;4.63;2.22;;;;;;;15.34;60.99;101060.50;5043651;28;20036;-83
2022/05/11 04:37:44;;;;;;;7.85;2.47;;;;;;;15.37;60.76;101060.38;5030893;28;20060;-86
2022/05/11 04:40:11;;;;;;;8.73;2.55;;;;;;;15.38;61.33;101059.47;5010111;28;20072;-86
2022/05/11 04:42:37;;;;;;;5.50;2.35;;;;;;;15.40;61.13;101062.06;5048836;28;20150;-87
2022/05/11 04:45:04;;;;;;;7.70;2.30;;;;;;;15.42;61.15;101070.88;5060749;28;20029;-87
2022/05/11 04:47:32;;;;;;;4.15;2.53;;;;;;;15.43;61.25;101070.81;5049111;28;20045;-86
2022/05/11 04:49:57;;;;;;;5.00;2.75;;;;;;;15.42;60.93;101063.72;5024175;28;20061;-86
2022/05/11 04:52:23;;;;;;;12.82;2.53;;;;;;;15.45;61.24;101070.75;5007372;28;20103;-86
2022/05/11 04:54:49;;;;;;;4.05;2.22;;;;;;;15.45;60.87;101073.41;5009599;28;20047;-86
2022/05/11 04:57:19;;;;;;;6.72;2.42;;;;;;;15.46;61.26;101064.50;5020216;28;20033;-86
2022/05/11 04:59:45;;;;;;;3.67;2.30;;;;;;;15.46;61.51;101068.03;5025401;28;20459;-87
2022/05/11 05:02:16;;;;;;;4.60;2.60;;;;;;;15.45;61.37;101058.28;5020987;28;20028;-86
2022/05/11 05:04:42;;;;;;;5.47;2.40;;;;;;;15.47;61.71;101066.22;5023266;28;20036;-86
2022/05/11 05:07:07;;;;;;;5.05;2.50;;;;;;;15.48;61.67;101065.31;5019816;28;20041;-87
2022/05/11 05:09:32;;;;;;;4.10;2.13;;;;;;;15.48;61.70;101071.50;5019054;28;20117;-86
2022/05/11 05:11:58;;;;;;;5.03;2.60;;;;;;;15.47;61.81;101068.91;4992043;28;20102;-86
2022/05/11 05:14:23;;;;;;;7.88;2.50;;;;;;;15.50;61.41;101068.78;4987787;28;20119;-86
2022/05/11 05:16:49;;;;;;;9.05;2.75;;;;;;;15.50;61.61;101074.09;4992344;28;20445;-86
2022/05/11 05:19:21;;;;;;;3.97;2.40;;;;;;;15.45;61.78;101074.31;5025418;28;20036;-87
2022/05/11 05:21:48;;;;;;;4.25;2.50;;;;;;;15.45;62.13;101078.75;4992663;28;20072;-86
2022/05/11 05:24:13;;;;;;;3.85;2.58;;;;;;;15.47;61.78;101077.75;5042820;28;20111;-86
2022/05/11 05:26:39;;;;;;;8.48;3.38;;;;;;;15.46;61.78;101080.50;5042300;28;20104;-87
2022/05/11 05:31:48;;;;;;;8.13;3.00;;;;;;;15.47;62.03;101080.44;5013450;28;20041;-86
2022/05/11 05:34:14;;;;;;;7.97;2.47;;;;;;;15.49;62.26;101086.59;5022295;28;20182;-86
2022/05/11 05:36:41;;;;;;;6.95;2.80;;;;;;;15.53;62.12;101089.13;5016407;28;20076;-86
2022/05/11 05:39:06;;;;;;;6.25;2.60;;;;;;;15.55;62.46;101089.94;5037249;28;20116;-86
2022/05/11 05:41:33;;;;;;;7.07;2.88;;;;;;;15.59;61.92;101087.09;4997437;28;20434;-87
2022/05/11 05:43:59;;;;;;;6.60;2.60;;;;;;;15.62;62.05;101086.97;4997902;28;20045;-86
2022/05/11 05:46:24;;;;;;;4.40;2.90;;;;;;;15.65;61.49;101083.31;5017656;28;20064;-87
2022/05/11 05:48:51;;;;;;;8.77;3.28;;;;;;;15.70;61.77;101086.72;5002864;28;20477;-87
2022/05/11 05:51:18;;;;;;;7.85;2.72;;;;;;;15.74;61.24;101087.47;5053786;28;20032;-87
2022/05/11 05:53:45;;;;;;;4.78;2.95;;;;;;;15.78;61.21;101089.97;5037138;28;20148;-87
2022/05/11 05:56:12;;;;;;;6.82;2.72;;;;;;;15.86;60.62;101090.53;5054038;28;20036;-86
2022/05/11 05:58:38;;;;;;;6.72;2.75;;;;;;;15.93;60.55;101087.63;5054166;28;20044;-86
2022/05/11 06:01:05;;;;;;;5.32;2.80;;;;;;;16.02;60.67;101097.91;5037150;28;20036;-87
2022/05/11 06:03:33;;;;;;;9.40;3.03;;;;;;;16.10;60.48;101096.69;5071768;28;20037;-87
2022/05/11 06:05:59;;;;;;;7.13;2.80;;;;;;;16.20;59.80;101097.19;5053624;28;20036;-86
2022/05/11 06:08:25;;;;;;;6.72;2.53;;;;;;;16.28;59.33;101094.19;5052285;28;20033;-86
2022/05/11 06:10:54;;;;;;;8.10;2.80;;;;;;;16.36;58.19;101093.88;5033662;28;20082;-86
2022/05/11 06:13:22;;;;;;;6.53;2.60;;;;;;;16.40;58.37;101093.69;5033656;28;20075;-86
2022/05/11 06:15:49;;;;;;;4.55;2.17;;;;;;;16.45;57.32;101085.47;5001482;28;20068;-86
2022/05/11 06:18:15;;;;;;;8.90;2.65;;;;;;;16.40;57.72;101076.78;5033513;28;20473;-87
2022/05/11 06:20:40;;;;;;;6.38;2.50;;;;;;;16.50;58.11;101076.31;5048045;28;20028;-86
2022/05/11 06:23:06;;;;;;;9.10;2.40;;;;;;;16.59;57.77;101083.06;5017108;28;20033;-87
2022/05/11 06:25:34;;;;;;;7.53;2.50;;;;;;;16.72;57.47;101078.94;5050082;28;20082;-86
2022/05/11 06:28:00;;;;;;;6.18;2.13;;;;;;;16.85;56.60;101084.63;5051584;28;20033;-87
2022/05/11 06:30:27;;;;;;;9.65;2.67;;;;;;;16.92;55.37;101083.44;5050131;28;20025;-86
2022/05/11 06:32:52;;;;;;;6.30;2.30;;;;;;;16.92;55.41;101082.56;5050111;28;20033;-87
2022/05/11 06:35:19;;;;;;;4.75;2.13;;;;;;;16.90;55.18;101084.44;5033315;28;20121;-87
2022/05/11 06:37:45;;;;;;;8.57;2.47;;;;;;;16.95;54.58;101082.41;5033384;28;20094;-86
2022/05/11 06:40:13;;;;;;;8.18;2.28;;;;;;;16.95;53.43;101082.41;5033009;28;20028;-86
2022/05/11 06:42:38;;;;;;;5.95;2.40;;;;;;;16.91;52.12;101087.06;5050030;28;20120;-87
2022/05/11 06:45:05;;;;;;;5.63;2.30;;;;;;;16.81;52.74;101087.50;5010339;28;20129;-87
2022/05/11 06:47:32;;;;;;;7.28;2.63;;;;;;;16.76;52.47;101075.19;5019758;28;20480;-87
2022/05/11 06:49:58;;;;;;;10.00;2.53;;;;;;;16.80;52.90;101081.28;5007938;28;20115;-86
2022/05/11 06:52:24;;;;;;;6.32;2.22;;;;;;;16.83;52.97;101074.94;5015972;28;20125;-87
2022/05/11 07:00:26;;;;;;;11.57;2.30;;;;;;;16.97;52.83;101076.06;5035805;28;20036;-87
2022/05/11 07:02:52;;;;;;;6.97;2.15;;;;;;;16.98;52.63;101071.56;5018924;28;20423;-86
2022/05/11 07:05:18;;;;;;;4.30;2.40;;;;;;;16.92;52.95;101079.91;5016464;28;20040;-87
2022/05/11 07:07:43;;;;;;;5.70;2.33;;;;;;;16.90;52.61;101085.31;5016262;28;20505;-88
2022/05/11 07:10:09;;;;;;;7.18;2.25;;;;;;;16.91;52.96;101081.72;5015211;28;20353;-87
2022/05/11 07:12:38;;;;;;;8.45;2.03;;;;;;;16.99;52.85;101078.69;5003090;28;20049;-86
2022/05/11 07:15:08;;;;;;;13.07;2.60;;;;;;;16.91;51.44;101076.34;5019996;28;20037;-87
2022/05/11 07:17:47;;;;;;;6.82;2.28;;;;;;;16.83;52.58;101088.31;5035970;28;20044;-87
2022/05/11 07:20:20;;;;;;;6.50;2.63;;;;;;;16.77;52.33;101082.28;5033361;28;20056;-87
2022/05/11 07:22:46;;;;;;;9.60;2.70;;;;;;;16.79;52.27;101087.59;4999078;28;20481;-87
2022/05/11 07:25:17;;;;;;;7.00;2.70;;;;;;;16.75;51.89;101086.81;5032371;28;20033;-86
2022/05/11 07:27:44;;;;;;;8.38;2.80;;;;;;;16.75;52.60;101084.13;5032427;28;20401;-86
2022/05/11 07:30:14;;;;;;;13.63;2.90;;;;;;;16.78;52.47;101077.81;5015429;28;20547;-87
2022/05/11 07:32:39;;;;;;;10.35;2.65;;;;;;;16.81;52.58;101080.34;5032484;28;20021;-86
2022/05/11 07:35:07;;;;;;;5.72;2.63;;;;;;;16.92;52.01;101075.41;4999575;28;20041;-86
2022/05/11 07:37:32;;;;;;;10.20;2.92;;;;;;;17.02;51.98;101075.00;4999033;28;20053;-87
2022/05/11 07:39:59;;;;;;;9.18;2.70;;;;;;;16.98;52.21;101076.94;5015242;28;20032;-86
2022/05/11 07:42:27;;;;;;;9.20;2.90;;;;;;;17.03;52.85;101074.06;5015720;28;20049;-87
2022/05/11 07:44:52;;;;;;;6.53;2.67;;;;;;;17.18;52.94;101074.25;4990616;28;20039;-87
2022/05/11 07:47:20;;;;;;;7.03;2.70;;;;;;;17.29;53.03;101083.59;5013210;28;20037;-87
2022/05/11 07:49:46;;;;;;;9.80;3.03;;;;;;;17.47;52.95;101079.19;5054329;28;20040;-88
2022/05/11 07:52:11;;;;;;;7.78;3.20;;;;;;;17.61;52.08;101077.59;5053673;28;20047;-88
2022/05/11 07:54:38;;;;;;;10.70;3.13;;;;;;;17.83;52.23;101085.50;5002135;28;20044;-87
2022/05/11 07:59:57;;;;;;;10.25;2.80;;;;;;;18.07;50.20;101089.72;5037452;28;20048;-87
2022/05/11 08:02:31;;;;;;;9.48;3.38;;;;;;;18.09;48.19;101079.81;5050936;28;20040;-88
2022/05/11 08:05:03;;;;;;;13.30;2.25;;;;;;;17.97;47.51;101084.81;5036593;28;20453;-87
2022/05/11 08:07:37;;;;;;;9.68;2.20;;;;;;;17.99;46.93;101096.31;5053419;28;20135;-87
2022/05/11 08:10:02;;;;;;;8.63;2.42;;;;;;;17.98;47.12;101089.25;5035227;28;20114;-87
2022/05/11 08:12:28;;;;;;;11.30;2.65;;;;;;;17.92;47.24;101080.63;5033983;28;20111;-88
2022/05/11 08:14:54;;;;;;;8.05;2.47;;;;;;;17.88;47.01;101076.34;5018112;28;20086;-86
2022/05/11 08:17:29;;;;;;;10.32;2.35;;;;;;;17.91;47.41;101069.06;5017827;28;20485;-88
2022/05/11 08:19:55;;;;;;;13.55;2.75;;;;;;;18.01;46.82;101069.47;5034104;28;20177;-87
2022/05/11 08:22:22;;;;;;;11.63;2.55;;;;;;;18.10;47.02;101079.75;5035189;28;20367;-87
2022/05/11 08:24:49;;;;;;;8.40;2.35;;;;;;;18.20;46.80;101081.03;5035226;28;20036;-87
2022/05/11 08:27:21;;;;;;;7.70;2.47;;;;;;;18.14;47.02;101078.63;5052637;28;20076;-87
2022/05/11 08:35:16;;;;;;;5.90;2.20;;;;;;;18.29;47.05;101068.94;5050749;28;20396;-88
2022/05/11 08:37:42;;;;;;;13.70;2.60;;;;;;;18.22;47.22;101073.78;5001317;28;20044;-88
2022/05/11 08:40:17;;;;;;;12.20;2.67;;;;;;;18.39;47.15;101059.50;5018649;28;20102;-88
2022/05/11 08:42:42;;;;;;;8.57;2.53;;;;;;;18.42;46.39;101063.81;5034331;28;20103;-88
2022/05/11 08:45:09;;;;;;;7.63;2.40;;;;;;;18.49;46.28;101075.97;5035079;28;20516;-84
2022/05/11 08:47:43;;;;;;;8.90;2.50;;;;;;;18.39;46.35;101062.16;5033504;28;20110;-87
2022/05/11 08:50:18;;;;;;;8.88;2.60;;;;;;;18.34;46.56;101061.53;5043734;28;20040;-88
2022/05/11 08:52:50;;;;;;;10.95;2.40;;;;;;;18.42;46.43;101071.88;5033522;28;20114;-88
2022/05/11 08:55:30;;;;;;;9.32;2.20;;;;;;;18.51;47.25;101067.88;5033427;28;20036;-87
2022/05/11 08:57:57;;;;;;;14.88;3.33;;;;;;;18.56;45.94;101072.03;5017011;28;20025;-88
2022/05/11 09:00:23;;;;;;;10.32;2.58;;;;;;;18.68;46.42;101067.84;5033213;28;20024;-88
2022/05/11 09:03:03;;;;;;;8.85;2.63;;;;;;;18.79;45.80;101061.94;5034065;28;20029;-88
2022/05/11 09:05:31;;;;;;;6.97;2.60;;;;;;;18.79;46.46;101064.63;5053069;28;20032;-88
2022/05/11 09:07:57;;;;;;;9.43;2.88;;;;;;;18.85;46.73;101054.47;5053713;28;20460;-88
2022/05/11 09:10:29;;;;;;;11.18;2.70;;;;;;;19.16;46.54;101060.84;5037110;28;20104;-87
2022/05/11 09:12:59;;;;;;;10.75;2.78;;;;;;;19.27;45.03;101055.78;5054125;28;20080;-88
2022/05/11 09:15:53;;;;;;;11.93;3.08;;;;;;;19.19;45.06;101055.34;5036945;28;20058;-85
2022/05/11 09:18:30;;;;;;;11.75;3.30;;;;;;;19.23;45.52;101050.66;5046472;28;20040;-86
2022/05/11 09:21:32;;;;;;;11.95;3.17;;;;;;;19.13;45.61;101056.50;5070716;28;20037;-85
2022/05/11 09:24:13;;;;;;;10.40;2.80;;;;;;;19.10;45.69;101051.31;5070169;28;20100;-85
2022/05/11 09:26:44;;;;;;;15.93;3.08;;;;;;;19.18;45.80;101056.28;5020300;28;20499;-86
2022/05/11 09:29:21;;;;;;;9.15;3.15;;;;;;;19.40;45.51;101044.38;5049962;28;20064;-85
2022/05/11 09:31:50;;;;;;;13.38;3.40;;;;;;;19.31;44.63;101048.41;5033420;28;20380;-86
2022/05/11 09:34:33;;;;;;;10.40;2.50;;;;;;;19.30;45.34;101041.31;5016873;28;20361;-84
2022/05/11 09:37:02;;;;;;;7.90;3.00;;;;;;;19.39;45.44;101043.50;5017144;28;20033;-86
2022/05/11 09:39:29;;;;;;;10.27;3.40;;;;;;;19.47;45.23;101046.63;5016786;28;20053;-85
2022/05/11 09:42:01;;;;;;;15.13;3.45;;;;;;;19.55;45.61;101052.41;5001097;28;20125;-84
2022/05/11 09:44:43;;;;;;;8.85;3.10;;;;;;;19.75;45.65;101037.03;5063150;28;20032;-83
2022/05/11 09:48:02;;;;;;;9.05;3.72;;;;;;;19.76;45.14;101052.22;5006629;28;20136;-84
2022/05/11 09:50:27;;;;;;;13.90;3.70;;;;;;;19.98;45.01;101041.97;5041333;28;20065;-84
2022/05/11 09:53:07;;;;;;;13.27;3.55;;;;;;;20.10;45.02;101035.00;5032844;28;20029;-86
2022/05/11 09:55:33;;;;;;;14.23;3.57;;;;;;;20.11;44.29;101041.25;5016716;28;20033;-87
2022/05/11 09:58:02;;;;;;;19.25;3.95;;;;;;;20.12;45.22;101027.69;5033413;28;20056;-88
2022/05/11 10:00:40;;;;;;;9.38;3.22;;;;;;;20.34;45.11;101031.81;5032656;28;20033;-88
2022/05/11 10:03:14;;;;;;;10.77;3.60;;;;;;;20.52;44.27;101037.91;5050884;28;20108;-87
2022/05/11 10:05:49;;;;;;;13.15;3.55;;;;;;;20.65;44.19;101035.34;5036595;28;20446;-88
2022/05/11 10:08:37;;;;;;;13.65;3.90;;;;;;;20.78;43.63;101045.28;5015751;28;20191;-87
2022/05/11 10:11:09;;;;;;;7.32;3.65;;;;;;;20.79;43.49;101046.16;5018307;28;20071;-87
2022/05/11 10:13:48;;;;;;;18.20;3.97;;;;;;;20.69;43.85;101037.78;5014353;28;20043;-88
2022/05/11 10:22:22;;;;;;;13.35;3.75;;;;;;;20.90;43.59;101030.22;5014557;28;20041;-87
2022/05/11 10:25:35;;;;;;;10.05;3.53;;;;;;;20.97;44.06;101026.19;4997508;28;20496;-87
2022/05/11 10:28:29;;;;;;;11.07;3.83;;;;;;;21.14;44.38;101022.44;5012315;28;20053;-87
2022/05/11 10:31:26;;;;;;;8.52;3.35;;;;;;;21.15;43.14;101029.53;5033990;28;20033;-85
2022/05/11 10:34:07;;;;;;;10.68;3.42;;;;;;;21.03;43.93;101016.84;5021365;28;20038;-88
2022/05/11 10:37:13;;;;;;;14.52;4.10;;;;;;;21.25;44.27;101028.00;5045264;28;20037;-89
2022/05/11 10:39:57;;;;;;;7.57;3.75;;;;;;;21.40;43.59;101010.00;5032394;28;20041;-88
2022/05/11 10:42:23;;;;;;;15.65;4.10;;;;;;;21.25;43.82;101019.91;5017482;28;20547;-88
2022/05/11 10:45:08;;;;;;;7.70;3.42;;;;;;;21.23;42.94;101013.75;5017792;28;20064;-87
2022/05/11 10:47:34;;;;;;;12.73;3.53;;;;;;;21.21;42.87;101015.66;5037040;28;20045;-88
2022/05/11 10:50:24;;;;;;;12.13;3.85;;;;;;;21.16;42.93;101003.47;5024890;28;20026;-87
2022/05/11 10:53:02;;;;;;;8.30;3.70;;;;;;;21.24;43.43;100995.75;5017578;28;20037;-88
2022/05/11 10:55:36;;;;;;;7.93;3.30;;;;;;;21.33;42.44;101002.41;5000924;28;20132;-87
2022/05/11 10:58:46;;;;;;;10.23;3.83;;;;;;;21.28;42.53;101000.00;5001630;28;20048;-88
2022/05/11 11:01:15;;;;;;;6.90;3.45;;;;;;;21.44;42.29;101003.47;5036317;28;20574;-87
2022/05/11 11:04:05;;;;;;;8.73;3.50;;;;;;;21.61;41.74;101006.88;5019142;28;20022;-88
2022/05/11 11:07:11;;;;;;;9.50;3.00;;;;;;;21.62;41.76;100989.75;5028761;28;20033;-87
2022/05/11 11:10:11;;;;;;;13.70;3.03;;;;;;;21.75;41.75;100996.06;5011536;28;20185;-88
2022/05/11 11:13:00;;;;;;;9.30;3.15;;;;;;;21.82;40.96;101000.09;5008322;28;20377;-88
2022/05/11 11:15:29;;;;;;;12.35;3.35;;;;;;;21.90;41.06;100988.78;5018167;28;20107;-88
2022/05/11 11:17:57;;;;;;;9.90;3.08;;;;;;;21.97;40.72;100982.00;5002980;28;20093;-87
2022/05/11 11:20:25;;;;;;;8.60;3.15;;;;;;;22.06;40.55;100988.63;5001087;28;20128;-88
2022/05/11 11:23:22;;;;;;;7.20;3.08;;;;;;;21.92;40.61;100975.22;5031345;28;20129;-86
2022/05/11 11:25:54;;;;;;;12.70;2.97;;;;;;;22.04;41.17;100979.78;5014680;28;20040;-89
2022/05/11 11:28:27;;;;;;;8.98;2.83;;;;;;;22.25;40.36;100967.53;4998996;28;20124;-87
2022/05/11 11:30:59;;;;;;;9.05;2.70;;;;;;;22.49;39.13;100974.91;5014534;28;20037;-88
2022/05/11 11:33:30;;;;;;;11.10;2.90;;;;;;;22.48;37.96;100976.75;4999090;28;20433;-88
2022/05/11 11:36:17;;;;;;;10.10;2.63;;;;;;;22.36;38.20;100983.00;4998641;28;20043;-86
2022/05/11 11:38:43;;;;;;;6.60;3.13;;;;;;;22.35;38.85;100967.75;5032547;28;20037;-87
2022/05/11 11:41:22;;;;;;;8.93;3.03;;;;;;;22.58;39.19;100968.88;5015242;28;20040;-87
2022/05/11 11:43:53;;;;;;;9.70;2.90;;;;;;;22.70;37.98;100965.31;5020898;28;20108;-86
2022/05/11 11:46:45;;;;;;;8.38;2.60;;;;;;;22.69;37.40;100957.31;5035798;28;20045;-87
2022/05/11 11:49:18;;;;;;;10.60;2.90;;;;;;;22.54;37.72;100948.47;5019145;28;20082;-85
2022/05/11 11:51:50;;;;;;;9.43;3.00;;;;;;;22.63;38.02;100961.31;5035661;28;20032;-86
2022/05/11 11:54:37;;;;;;;8.85;2.70;;;;;;;22.69;38.28;100951.91;5035756;28;20444;-86
2022/05/11 11:57:22;;;;;;;11.60;2.83;;;;;;;22.85;37.75;100948.97;5019396;28;20075;-84
2022/05/11 11:59:57;;;;;;;11.93;3.13;;;;;;;23.07;37.99;100945.63;5052908;28;20045;-86
2022/05/11 12:02:30;;;;;;;8.82;3.15;;;;;;;23.10;38.10;100940.00;5035828;28;20044;-86
2022/05/11 12:05:27;;;;;;;12.02;2.55;;;;;;;23.26;37.36;100948.69;5035573;28;20106;-86
2022/05/11 12:16:50;;;;;;;8.02;2.40;;;;;;;23.90;35.52;100931.38;5033419;28;20112;-85